PHTO

Hilo International Airport

Airport
ICAO code
PHTO
IATA Code
ITO
Summary
ICAO Region
NAM
ICAO Territory
Location

Hilo, Hawaii

Serving
Hilo
Elevation
38 ft
Coordinates
19° 43' 10" N , 155° 2' 45" W
KCC
Metar
Observation
PHTO 281853Z 00000KT 10SM CLR 27/19 A3007 RMK AO2 SLP180 T02720194
Station
Hilo, Hilo International Airport
Date/Time
2022-09-28 18:53:00
Wind direction
Wind speed
00 kts
Lowest cloud amount
n/a
Temperature
27.2°C
Dew point
19.4°C
Humidity
62%
Weather condition
n/a

Description

Hilo International Airport, formerly General Lyman Field, is located in Hilo, Hawaiʻi County. Hilo International Airport serves most of East Hawaiʻi, including the districts of Hilo and Puna, as well as portions of the districts of Hāmākua and Kaʻū. Most flights to the airport are from Honolulu International Airport by Hawaiian Airlines and go! Mokulele.

Climatology

Tropical Rainforest climate (Köppen climate classification Af) - almost no distinct seasons, average daily temperature around 27°C throughout the year. Extensive cloud cover and heavy rainfall prevent temperatures from rising much over 33°C. The diurnal temperature change is between 2°C and 5°C which is greater than the annual temperature range of 2°C. Rainfall is heavy and is usually convectional and in the afternoon.

Runways

Designator Length Width Surface Rops
3/21 1707 46 ASP Yes/Yes
8/26 2987 46 ASP Yes/Yes

Airport map

Aerial View

SKYbrary Partners:

Safety knowledge contributed by: